Fort Wainwright, AK (99703)

4:51 PM AKDT on May 22, 2017 (GMT -0800)
Ladd Army Air Field | | Change Station

Elev 453 ft 64.84 °N, 147.62 °W | Updated 53 minutes ago

Light Rain
Light Rain
51 °F
Feels Like 51 °F
N
10
Wind Variable Wind from SW

Today
High -- | Low -- °F
--% Chance of Precip.
Yesterday
High -- | Low -- °F
Precip. -- in
Pressure 29.68 in
Visibility 8.0 miles
Clouds Mostly Cloudy 1500 ft
Mostly Cloudy 2400 ft
Overcast 3300 ft
Dew Point 48 °F
Humidity 88%
Rainfall 0.16 in
Snow Depth Not available.
4:02 AM 11:34 PM
Waning Crescent, 11% visible
METAR PAFB 222358Z 23009KT 8SM -RA BKN015 BKN024 OVC033 11/09 A2967 RMK AO2A RAE00RAB10 SLP051 P0001 60004 T01050086 10105 20087 52012
Pressure 29.68 in
Visibility 8.0 miles
Clouds Mostly Cloudy 1500 ft
Mostly Cloudy 2400 ft
Overcast 3300 ft
Dew Point 48 °F
Humidity 88%
Rainfall 0.16 in
Snow Depth Not available.
4:02 AM 11:34 PM
Waning Crescent, 11% visible
METAR PAFB 222358Z 23009KT 8SM -RA BKN015 BKN024 OVC033 11/09 A2967 RMK AO2A RAE00RAB10 SLP051 P0001 60004 T01050086 10105 20087 52012

Get Severe Weather Alerts

Thanks for signing up!

Be on the lookout for a verification email in your inbox.

You'll start receiving the daily forecast at 6 AM.

×

10-Day Weather Forecast

Almanac

Astronomy

May. 22, 2017 Rise Set
Actual Time
Civil Twilight
Nautical Twilight
Astronomical Twilight
Moon
Length of Visible Light
Length of Day
Tomorrow will be .
, % of the Moon is Illuminated

Today's Extremes

State Highs State Lows

Community

WunderPhotos

Category 6

Welcome to Category 6. This is the collective home for Weather Underground's featured writeups by Dr. Jeff Masters (right), Bob Henson (left), Chris Burt, and other regular contributors.

Nearby

Air Quality

  Air Quality AQ Index Pollutant
Not available.

Snow Depth

Station Depth Elevation

Earthquake Activity

City Distance Mag. Time & Date
Minimum magnitude displayed is 2.5.

Coastal Water Temperatures

Place Temperature

Stations

Nearby Weather Stations

Station Location Temp. Windchill Dew Point Humidity Wind Precip. Elev Updated Type
                   

Watches & Warnings

There are currently no watches in effect.